This is the latest recevied weather packets stored in our database for station/object SR2GKG-13. If no packets are shown the sender has not sent any weather packets the latest 10 day(s).
| Time | Temp. | Humidity | Pressure | Rain* | Wind** | Luminosity | Snow |
|---|---|---|---|---|---|---|---|
| 1777217881 | 12.78° C | 19% | 1010.5 hPa | - | - | - | - |
| 1777216981 | 13.33° C | 19% | 1010.3 hPa | - | - | - | - |
| 1777216081 | 13.33° C | 21% | 1010.4 hPa | - | - | - | - |
| 1777215181 | 13.33° C | 21% | 1010.3 hPa | - | - | - | - |
| 1777214281 | 13.89° C | 20% | 1010.2 hPa | - | - | - | - |
| 1777213381 | 13.89° C | 18% | 1010 hPa | - | - | - | - |
| 1777212481 | 15° C | 19% | 1010 hPa | - | - | - | - |
| 1777211581 | 13.89° C | 21% | 1009.9 hPa | - | - | - | - |
| 1777210680 | 15° C | 21% | 1009.8 hPa | - | - | - | - |
| 1777209780 | 14.44° C | 20% | 1009.7 hPa | - | - | - | - |
| 1777208880 | 13.89° C | 21% | 1009.6 hPa | - | - | - | - |
| 1777207980 | 13.89° C | 21% | 1009.6 hPa | - | - | - | - |
| 1777207080 | 13.89° C | 23% | 1009.5 hPa | - | - | - | - |
| 1777206180 | 13.89° C | 23% | 1009.6 hPa | - | - | - | - |
| 1777205280 | 13.89° C | 24% | 1009.6 hPa | - | - | - | - |
| 1777204380 | 13.89° C | 25% | 1009.7 hPa | - | - | - | - |
| 1777203480 | 13.89° C | 25% | 1009.5 hPa | - | - | - | - |
| 1777202580 | 12.22° C | 28% | 1009.7 hPa | - | - | - | - |
| 1777201679 | 13.33° C | 28% | 1009.4 hPa | - | - | - | - |
| 1777200779 | 12.78° C | 29% | 1009.2 hPa | - | - | - | - |
| 1777199879 | 13.89° C | 28% | 1009.1 hPa | - | - | - | - |
| 1777198979 | 13.33° C | 31% | 1009 hPa | - | - | - | - |
| 1777198079 | 12.22° C | 33% | 1009.1 hPa | - | - | - | - |
| 1777197179 | 12.78° C | 29% | 1008.9 hPa | - | - | - | - |
| 1777196279 | 12.22° C | 34% | 1008.8 hPa | - | - | - | - |
* Rain since midnight (hover to see other rain measurements)
** Current wind speed in m/s (hover to see current wind gust speed)